| Date | Time | Temp. (oF) | Dew Point (oF) | Rel. Hum. (%) | Press. (in.) | Wind Dir. | Wind Speed (mph) | Hourly Rainfall (in.) |
|
|---|---|---|---|---|---|---|---|---|---|
| 1 | 04/28 | 00:00 | 40 | 25 | 55 | 29.64 | NW | 2 | 0.00 |
| 2 | 04/27 | 23:00 | 43 | 25 | 50 | 29.63 | NNE | 2 | 0.00 |
| 3 | 04/27 | 22:00 | 45 | 26 | 48 | 29.61 | N | 4 | 0.00 |
| 4 | 04/27 | 21:00 | 47 | 26 | 45 | 29.58 | N | 4 | 0.00 |
| 5 | 04/27 | 20:00 | 49 | 25 | 40 | 29.55 | N | 13 | 0.00 |
| 6 | 04/27 | 19:00 | 52 | 28 | 40 | 29.51 | NNW | 4 | 0.00 |
| 7 | 04/27 | 18:00 | 53 | 28 | 39 | 29.49 | NW | 7 | 0.00 |
| 8 | 04/27 | 17:00 | 53 | 30 | 43 | 29.47 | N | 7 | 0.00 |
| 9 | 04/27 | 16:00 | 54 | 34 | 47 | 29.46 | WNW | 7 | 0.00 |
| 10 | 04/27 | 15:00 | 56 | 35 | 47 | 29.44 | N | 9 | 0.00 |
| 11 | 04/27 | 14:00 | 55 | 37 | 52 | 29.44 | NNW | 9 | 0.00 |
| 12 | 04/27 | 13:00 | 55 | 38 | 53 | 29.42 | NW | 10 | 0.00 |
| 13 | 04/27 | 12:00 | 57 | 43 | 61 | 29.41 | NNW | 7 | 0.00 |
| 14 | 04/27 | 11:00 | 54 | 45 | 72 | 29.41 | NNE | 3 | 0.00 |
| 15 | 04/27 | 10:00 | 54 | 46 | 77 | 29.39 | NNW | 5 | 0.00 |
| 16 | 04/27 | 09:00 | 54 | 49 | 86 | 29.35 | N | 10 | 0.00 |
| 17 | 04/27 | 08:00 | 52 | 50 | 95 | 29.34 | N | 5 | 0.00 |
| 18 | 04/27 | 07:00 | 51 | 50 | 100 | 29.34 | N | 6 | 0.00 |
| 19 | 04/27 | 06:00 | 50 | 50 | 100 | 29.32 | NNW | 6 | 0.00 |
| 20 | 04/27 | 05:00 | 50 | 50 | 100 | 29.30 | WNW | 1 | 0.00 |
| 21 | 04/27 | 04:00 | 50 | 50 | 100 | 29.29 | NNW | 3 | 0.01 |
| 22 | 04/27 | 03:00 | 50 | 50 | 100 | 29.27 | NE | 3 | 0.00 |
| 23 | 04/27 | 02:00 | 51 | 50 | 100 | 29.27 | NNE | 3 | 0.01 |
| 24 | 04/27 | 01:00 | 52 | 51 | 100 | 29.27 | ENE | 4 | 0.04 |